createdAt,value
2016-12-09T00:00:20.375Z,0
2016-12-09T00:01:20.703Z,0
2016-12-09T00:02:20.131Z,0
2016-12-09T00:03:20.760Z,0
2016-12-09T00:04:20.185Z,0
2016-12-09T00:05:20.209Z,0
2016-12-09T00:06:20.222Z,0
2016-12-09T00:07:20.880Z,0
2016-12-09T00:08:20.584Z,0
2016-12-09T00:09:21.240Z,0
2016-12-09T00:10:20.385Z,0
2016-12-09T00:11:21.290Z,0
2016-12-09T00:12:20.707Z,0
2016-12-09T00:13:21.034Z,0
2016-12-09T00:14:20.759Z,0
2016-12-09T00:15:20.484Z,0
2016-12-09T00:16:20.833Z,0
2016-12-09T00:17:20.834Z,0
2016-12-09T00:18:21.178Z,0
2016-12-09T00:19:21.187Z,0
2016-12-09T00:20:20.619Z,0
2016-12-09T00:21:20.636Z,0
2016-12-09T00:22:20.949Z,0
2016-12-09T00:23:21.309Z,0
2016-12-09T00:24:21.058Z,0
2016-12-09T00:25:21.363Z,0
2016-12-09T00:26:21.395Z,0
2016-12-09T00:27:21.092Z,0
2016-12-09T00:28:21.137Z,0
2016-12-09T00:29:20.875Z,0
2016-12-09T00:30:21.491Z,0
2016-12-09T00:31:20.915Z,0
2016-12-09T00:32:21.536Z,0
2016-12-09T00:33:21.276Z,0
2016-12-09T00:34:21.280Z,0
2016-12-09T00:35:21.009Z,0
2016-12-09T00:36:21.354Z,0
2016-12-09T00:37:21.362Z,0
2016-12-09T00:38:21.399Z,0
2016-12-09T00:39:21.424Z,0
2016-12-09T00:40:21.161Z,0
2016-12-09T00:41:21.497Z,0
2016-12-09T00:42:21.503Z,0
2016-12-09T00:43:20.935Z,0
2016-12-09T00:44:21.277Z,0
2016-12-09T00:45:21.316Z,0
2016-12-09T00:46:21.621Z,0
2016-12-09T00:47:21.666Z,0
2016-12-09T00:48:22.281Z,0
2016-12-09T00:49:21.685Z,0
2016-12-09T00:50:21.419Z,0
2016-12-09T00:51:21.760Z,0
2016-12-09T00:52:21.482Z,0
2016-12-09T00:53:21.810Z,0
2016-12-09T00:54:22.146Z,0
2016-12-09T00:55:21.871Z,0
2016-12-09T01:00:23.393Z,0
2016-12-09T01:01:08.247Z,0
2016-12-09T01:02:37.421Z,0
2016-12-09T01:02:50.744Z,0
2016-12-09T01:03:49.873Z,0
2016-12-09T01:04:50.742Z,0
2016-12-09T01:05:50.235Z,0
2016-12-09T01:06:50.867Z,0
2016-12-09T01:07:50.312Z,0
2016-12-09T01:08:49.989Z,0
2016-12-09T01:09:50.022Z,0
2016-12-09T01:10:50.050Z,0
2016-12-09T01:11:49.783Z,0
2016-12-09T01:12:50.118Z,0
2016-12-09T01:13:49.845Z,0
2016-12-09T01:14:50.449Z,0
2016-12-09T01:15:49.891Z,0
2016-12-09T01:16:50.522Z,0
2016-12-09T01:17:50.239Z,0
2016-12-09T01:18:50.580Z,0
2016-12-09T01:19:50.917Z,0
2016-12-09T01:20:50.334Z,0
2016-12-09T01:21:50.055Z,0
2016-12-09T01:22:50.102Z,0
2016-12-09T01:23:50.407Z,0
2016-12-09T01:24:50.420Z,0
2016-12-09T01:25:50.764Z,0
2016-12-09T01:26:50.501Z,0
2016-12-09T01:27:50.830Z,0
2016-12-09T01:28:50.247Z,0
2016-12-09T01:29:50.263Z,0
2016-12-09T01:30:50.278Z,0
2016-12-09T01:31:50.922Z,0
2016-12-09T01:32:50.338Z,0
2016-12-09T01:33:50.366Z,0
2016-12-09T01:34:51.002Z,0
2016-12-09T01:35:50.427Z,0
2016-12-09T01:36:50.439Z,0
2016-12-09T01:37:51.086Z,0
2016-12-09T01:38:50.513Z,0
2016-12-09T01:39:50.846Z,0
2016-12-09T01:40:51.467Z,0
2016-12-09T01:41:50.587Z,0
2016-12-09T01:42:51.224Z,0
2016-12-09T01:43:51.233Z,0
2016-12-09T01:44:51.565Z,0
2016-12-09T01:45:50.686Z,0
2016-12-09T01:46:51.315Z,0
2016-12-09T01:47:51.952Z,0
2016-12-09T01:48:51.376Z,0
2016-12-09T01:49:51.404Z,0
2016-12-09T01:50:51.437Z,0
2016-12-09T01:51:50.838Z,0
2016-12-09T01:52:50.867Z,0
2016-12-09T01:53:51.216Z,0
2016-12-09T01:54:51.528Z,0
2016-12-09T01:55:51.859Z,0
2016-12-09T01:56:51.897Z,0
2016-12-09T01:57:51.322Z,0
2016-12-09T01:58:51.335Z,0
2016-12-09T01:59:51.360Z,0
2016-12-09T02:00:51.384Z,0
2016-12-09T02:01:51.117Z,0
2016-12-09T02:02:52.358Z,0
2016-12-09T02:03:52.070Z,0
2016-12-09T02:04:51.510Z,0
2016-12-09T02:05:51.209Z,0
2016-12-09T02:06:51.846Z,0
2016-12-09T02:07:51.882Z,0
2016-12-09T02:08:51.298Z,0
2016-12-09T02:09:51.330Z,0
2016-12-09T02:10:51.967Z,0
2016-12-09T02:11:51.985Z,0
2016-12-09T02:12:51.696Z,0
2016-12-09T02:13:51.724Z,0
2016-12-09T02:14:51.754Z,0
2016-12-09T02:15:52.098Z,0
2016-12-09T02:16:52.143Z,0
2016-12-09T02:17:51.544Z,0
2016-12-09T02:18:52.498Z,0
2016-12-09T02:19:52.205Z,0
2016-12-09T02:20:51.614Z,0
2016-12-09T02:21:52.238Z,0
2016-12-09T02:22:51.979Z,0
2016-12-09T02:23:52.599Z,0
2016-12-09T02:24:52.321Z,0
2016-12-09T02:25:52.956Z,0
2016-12-09T02:26:52.982Z,0
2016-12-09T02:27:52.994Z,0
2016-12-09T02:28:53.031Z,0
2016-12-09T02:29:52.164Z,0
2016-12-09T02:30:52.792Z,0
2016-12-09T02:31:52.809Z,0
2016-12-09T02:32:52.550Z,0
2016-12-09T02:33:52.250Z,0
2016-12-09T02:34:52.287Z,0
2016-12-09T02:35:52.304Z,0
2016-12-09T02:36:52.644Z,0
2016-12-09T02:37:52.665Z,0
2016-12-09T02:38:53.006Z,0
2016-12-09T02:39:52.731Z,0
2016-12-09T02:40:52.739Z,0
2016-12-09T02:41:53.056Z,0
2016-12-09T02:42:52.189Z,0
2016-12-09T02:43:52.525Z,0
2016-12-09T02:44:52.546Z,0
2016-12-09T02:45:52.583Z,0
2016-12-09T02:46:53.511Z,0
2016-12-09T02:47:52.316Z,0
2016-12-09T02:48:52.360Z,0
2016-12-09T02:49:52.685Z,0
2016-12-09T02:50:52.710Z,0
2016-12-09T02:51:52.422Z,0
2016-12-09T02:52:52.451Z,0
2016-12-09T02:53:53.705Z,0
2016-12-09T02:54:53.107Z,0
2016-12-09T02:55:52.529Z,0
2016-12-09T02:56:52.550Z,0
2016-12-09T02:57:53.194Z,0
2016-12-09T02:58:52.915Z,0
2016-12-09T02:59:53.581Z,0
2016-12-09T03:00:53.287Z,0
2016-12-09T03:01:53.298Z,0
2016-12-09T03:02:52.726Z,0
2016-12-09T03:03:53.042Z,0
2016-12-09T03:04:53.676Z,0
2016-12-09T03:05:53.102Z,0
2016-12-09T03:06:53.737Z,0
2016-12-09T03:07:53.769Z,0
2016-12-09T03:08:53.166Z,0
2016-12-09T03:09:52.886Z,0
2016-12-09T03:10:53.531Z,0
2016-12-09T03:11:54.172Z,0
2016-12-09T03:12:53.589Z,0
2016-12-09T03:13:53.930Z,0
2016-12-09T03:14:53.950Z,0
2016-12-09T03:15:53.367Z,0
2016-12-09T03:16:53.092Z,0
2016-12-09T03:17:53.112Z,0
2016-12-09T03:18:53.437Z,0
2016-12-09T03:19:53.473Z,0
2016-12-09T03:20:53.802Z,0
2016-12-09T03:21:54.119Z,0
2016-12-09T03:22:53.237Z,0
2016-12-09T03:23:53.569Z,0
2016-12-09T03:24:53.304Z,0
2016-12-09T03:25:53.626Z,0
2016-12-09T03:26:53.346Z,0
2016-12-09T03:27:54.295Z,0
2016-12-09T03:28:54.328Z,0
2016-12-09T03:29:53.728Z,0
2016-12-09T03:30:54.066Z,0
2016-12-09T03:31:54.385Z,0
2016-12-09T03:32:53.503Z,0
2016-12-09T03:33:54.155Z,0
2016-12-09T03:34:54.484Z,0
2016-12-09T03:35:54.201Z,0
2016-12-09T03:36:54.497Z,0
2016-12-09T03:37:54.529Z,0
2016-12-09T03:38:53.670Z,0
2016-12-09T03:39:54.288Z,0
2016-12-09T03:40:54.332Z,0
2016-12-09T03:41:54.652Z,0
2016-12-09T03:42:54.670Z,0
2016-12-09T03:43:54.094Z,0
2016-12-09T03:44:54.424Z,0
2016-12-09T03:45:54.463Z,0
2016-12-09T03:46:53.868Z,0
2016-12-09T03:47:53.892Z,0
2016-12-09T03:48:54.882Z,0
2016-12-09T03:49:55.183Z,0
2016-12-09T03:50:54.275Z,0
2016-12-09T03:51:54.012Z,0
2016-12-09T03:52:54.920Z,0
2016-12-09T03:53:54.672Z,0
2016-12-09T03:54:55.001Z,0
2016-12-09T03:55:55.014Z,0
2016-12-09T03:56:54.743Z,0
2016-12-09T03:57:54.758Z,0
2016-12-09T03:58:54.179Z,0
2016-12-09T03:59:54.521Z,0
2016-12-09T04:00:55.449Z,0
2016-12-09T04:01:55.169Z,0
2016-12-09T04:02:54.942Z,0
2016-12-09T04:03:55.226Z,0
2016-12-09T04:04:55.546Z,0
2016-12-09T04:05:54.662Z,0
2016-12-09T04:06:55.000Z,0
2016-12-09T04:07:54.416Z,0
2016-12-09T04:08:54.749Z,0
2016-12-09T04:09:55.085Z,0
2016-12-09T04:10:55.106Z,0
2016-12-09T04:11:55.422Z,0
2016-12-09T04:12:55.147Z,0
2016-12-09T04:13:54.884Z,0
2016-12-09T04:14:55.196Z,0
2016-12-09T04:15:55.225Z,0
2016-12-09T04:16:55.259Z,0
2016-12-09T04:17:55.286Z,0
2016-12-09T04:18:55.602Z,0
2016-12-09T04:19:54.727Z,0
2016-12-09T04:20:55.353Z,0
2016-12-09T04:21:55.083Z,0
2016-12-09T04:22:54.810Z,0
2016-12-09T04:23:55.447Z,0
2016-12-09T04:24:55.783Z,0
2016-12-09T04:25:55.479Z,0
2016-12-09T04:26:55.216Z,0
2016-12-09T04:27:55.544Z,0
2016-12-09T04:28:55.565Z,0
2016-12-09T04:29:55.902Z,0
2016-12-09T04:30:55.927Z,0
2016-12-09T04:31:55.648Z,0
2016-12-09T04:32:55.059Z,0
2016-12-09T04:33:55.392Z,0
2016-12-09T04:34:55.729Z,0
2016-12-09T04:35:55.442Z,0
2016-12-09T04:36:55.477Z,0
2016-12-09T04:37:55.499Z,0
2016-12-09T04:38:56.140Z,0
2016-12-09T04:39:55.540Z,0
2016-12-09T04:40:56.177Z,0
2016-12-09T04:41:55.308Z,0
2016-12-09T04:42:55.931Z,0
2016-12-09T04:43:56.259Z,0
2016-12-09T04:44:55.684Z,0
2016-12-09T04:45:56.648Z,0
2016-12-09T04:46:55.728Z,0
2016-12-09T04:47:55.766Z,0
2016-12-09T04:48:56.090Z,0
2016-12-09T04:49:55.815Z,0
2016-12-09T04:50:56.136Z,0
2016-12-09T04:51:56.464Z,0
2016-12-09T04:52:55.894Z,0
2016-12-09T04:53:56.540Z,0
2016-12-09T04:54:55.630Z,0
2016-12-09T04:55:55.959Z,0
2016-12-09T04:56:56.319Z,0
2016-12-09T04:57:56.329Z,0
2016-12-09T04:58:56.059Z,0
2016-12-09T04:59:56.414Z,0
2016-12-09T05:00:56.991Z,0
2016-12-09T05:01:56.747Z,0
2016-12-09T05:02:56.446Z,0
2016-12-09T05:03:56.176Z,0
2016-12-09T05:04:56.205Z,0
2016-12-09T05:05:56.546Z,0
2016-12-09T05:06:56.855Z,0
2016-12-09T05:07:56.567Z,0
2016-12-09T05:08:56.296Z,0
2016-12-09T05:09:56.333Z,0
2016-12-09T05:10:56.362Z,0
2016-12-09T05:11:56.390Z,0
2016-12-09T05:12:56.727Z,0
2016-12-09T05:13:56.740Z,0
2016-12-09T05:14:56.451Z,0
2016-12-09T05:15:56.182Z,0
2016-12-09T05:16:56.805Z,0
2016-12-09T05:17:56.537Z,0
2016-12-09T05:18:56.575Z,0
2016-12-09T05:19:56.592Z,0
2016-12-09T05:20:56.311Z,0
2016-12-09T05:21:56.949Z,0
2016-12-09T05:22:56.358Z,0
2016-12-09T05:23:56.696Z,0
2016-12-09T05:24:57.375Z,0
2016-12-09T05:25:57.360Z,0
2016-12-09T05:26:57.693Z,0
2016-12-09T05:27:56.794Z,0
2016-12-09T05:28:56.845Z,0
2016-12-09T05:29:57.764Z,0
2016-12-09T05:30:57.499Z,0
2016-12-09T05:31:57.505Z,0
2016-12-09T05:32:57.237Z,0
2016-12-09T05:33:57.569Z,0
2016-12-09T05:34:57.011Z,0
2016-12-09T05:35:57.304Z,0
2016-12-09T05:36:57.332Z,0
2016-12-09T05:37:56.757Z,0
2016-12-09T05:38:57.098Z,0
2016-12-09T05:39:58.058Z,0
2016-12-09T05:40:57.139Z,0
2016-12-09T05:41:57.764Z,0
2016-12-09T05:42:57.180Z,0
2016-12-09T05:43:56.913Z,0
2016-12-09T05:44:57.590Z,0
2016-12-09T05:45:57.883Z,0
2016-12-09T05:46:57.592Z,0
2016-12-09T05:47:57.649Z,0
2016-12-09T05:48:57.645Z,0
2016-12-09T05:49:57.090Z,0
2016-12-09T05:50:57.994Z,0
2016-12-09T05:51:57.732Z,0
2016-12-09T05:52:57.748Z,0
2016-12-09T05:53:57.805Z,0
2016-12-09T05:54:57.818Z,0
2016-12-09T05:55:58.455Z,0
2016-12-09T05:56:57.856Z,0
2016-12-09T05:57:57.576Z,0
2016-12-09T05:58:58.217Z,0
2016-12-09T05:59:58.241Z,0
2016-12-09T06:00:57.666Z,0
2016-12-09T06:01:58.009Z,0
2016-12-09T06:02:58.040Z,0
2016-12-09T06:03:58.037Z,0
2016-12-09T06:04:58.065Z,0
2016-12-09T06:05:58.702Z,0
2016-12-09T06:06:57.819Z,0
2016-12-09T06:07:58.144Z,0
2016-12-09T06:08:58.188Z,0
2016-12-09T06:09:58.197Z,0
2016-12-09T06:10:58.543Z,0
2016-12-09T06:11:57.948Z,0
2016-12-09T06:12:57.967Z,0
2016-12-09T06:13:58.604Z,0
2016-12-09T06:14:58.325Z,0
2016-12-09T06:15:58.061Z,0
2016-12-09T06:16:58.414Z,0
2016-12-09T06:17:58.115Z,0
2016-12-09T06:18:58.735Z,0
2016-12-09T06:19:58.489Z,0
2016-12-09T06:20:58.205Z,0
2016-12-09T06:21:59.122Z,0
2016-12-09T06:22:58.542Z,0
2016-12-09T06:23:58.263Z,0
2016-12-09T06:24:58.296Z,0
2016-12-09T06:25:58.332Z,0
2016-12-09T06:26:58.656Z,0
2016-12-09T06:27:58.362Z,0
2016-12-09T06:28:58.398Z,0
2016-12-09T06:29:58.415Z,0
2016-12-09T06:30:58.448Z,0
2016-12-09T06:31:58.476Z,0
2016-12-09T06:32:59.109Z,0
2016-12-09T06:33:59.142Z,0
2016-12-09T06:34:58.546Z,0
2016-12-09T06:35:58.273Z,0
2016-12-09T06:36:58.604Z,0
2016-12-09T06:37:58.630Z,0
2016-12-09T06:38:58.353Z,0
2016-12-09T06:39:58.987Z,0
2016-12-09T06:40:59.331Z,0
2016-12-09T06:41:59.044Z,0
2016-12-09T06:42:59.372Z,0
2016-12-09T06:43:59.392Z,0
2016-12-09T06:44:58.518Z,0
2016-12-09T06:45:58.839Z,0
2016-12-09T06:46:58.871Z,0
2016-12-09T06:47:58.941Z,0
2016-12-09T06:48:59.225Z,0
2016-12-09T06:49:59.870Z,0
2016-12-09T06:50:58.679Z,0
2016-12-09T06:51:59.899Z,0
2016-12-09T06:52:59.320Z,0
2016-12-09T06:53:59.376Z,0
2016-12-09T06:54:58.780Z,0
2016-12-09T06:55:59.419Z,0
2016-12-09T06:56:59.750Z,0
2016-12-09T06:57:59.177Z,0
2016-12-09T06:59:00.104Z,0
2016-12-09T06:59:59.512Z,0
2016-12-09T07:00:59.846Z,0
2016-12-09T07:01:59.257Z,0
2016-12-09T07:02:59.302Z,0
2016-12-09T07:04:00.235Z,0
2016-12-09T07:05:00.587Z,0
2016-12-09T07:06:00.583Z,0
2016-12-09T07:07:00.466Z,0
2016-12-09T07:08:00.710Z,0
2016-12-09T07:09:01.011Z,0
2016-12-09T07:10:00.594Z,0
2016-12-09T07:10:59.217Z,0
2016-12-09T07:12:01.321Z,0
2016-12-09T07:13:00.182Z,0
2016-12-09T07:13:59.573Z,0
2016-12-09T07:14:59.611Z,0
2016-12-09T07:15:59.659Z,0
2016-12-09T07:16:59.964Z,0
2016-12-09T07:18:00.001Z,0
2016-12-09T07:19:00.326Z,0
2016-12-09T07:20:00.042Z,0
2016-12-09T07:21:00.383Z,0
2016-12-09T07:22:00.108Z,0
2016-12-09T07:23:00.136Z,0
2016-12-09T07:24:00.153Z,0
2016-12-09T07:24:59.874Z,0
2016-12-09T07:26:00.214Z,0
2016-12-09T07:27:00.235Z,0
2016-12-09T07:28:00.255Z,0
2016-12-09T07:29:00.312Z,0
2016-12-09T07:30:00.029Z,0
2016-12-09T07:31:00.950Z,0
2016-12-09T07:32:00.661Z,0
2016-12-09T07:33:00.699Z,0
2016-12-09T07:33:59.847Z,0
2016-12-09T07:35:00.732Z,0
2016-12-09T07:35:59.882Z,0
2016-12-09T07:37:00.203Z,0
2016-12-09T07:38:00.538Z,0
2016-12-09T07:39:00.563Z,0
2016-12-09T07:40:00.568Z,0
2016-12-09T07:41:01.224Z,0
2016-12-09T07:42:00.024Z,0
2016-12-09T07:43:00.673Z,0
2016-12-09T07:44:00.086Z,0
2016-12-09T07:45:00.710Z,0
2016-12-09T07:46:00.755Z,0
2016-12-09T07:47:00.764Z,0
2016-12-09T07:48:01.113Z,0
2016-12-09T07:49:00.521Z,0
2016-12-09T07:50:01.454Z,0
2016-12-09T07:51:00.882Z,0
2016-12-09T07:52:00.895Z,0
2016-12-09T07:53:00.629Z,0
2016-12-09T07:54:01.276Z,0
2016-12-09T07:55:00.682Z,5
2016-12-09T07:56:00.718Z,5
2016-12-09T07:57:01.322Z,5
2016-12-09T07:58:01.054Z,5
2016-12-09T07:59:01.087Z,5
2016-12-09T08:00:00.808Z,5
2016-12-09T08:01:01.137Z,5
2016-12-09T08:02:01.478Z,5
2016-12-09T08:03:00.894Z,5
2016-12-09T08:04:01.243Z,5
2016-12-09T08:05:00.645Z,5
2016-12-09T08:06:01.272Z,5
2016-12-09T08:07:01.305Z,5
2016-12-09T08:08:01.338Z,5
2016-12-09T08:09:01.050Z,5
2016-12-09T08:10:01.378Z,5
2016-12-09T08:11:01.117Z,5
2016-12-09T08:12:01.448Z,5
2016-12-09T08:13:01.458Z,5
2016-12-09T08:14:01.474Z,5
2016-12-09T08:15:00.924Z,5
2016-12-09T08:16:01.248Z,5
2016-12-09T08:17:02.173Z,5
2016-12-09T08:18:01.305Z,5
2016-12-09T08:19:01.941Z,5
2016-12-09T08:20:01.647Z,5
2016-12-09T08:21:01.968Z,5
2016-12-09T08:22:01.705Z,5
2016-12-09T08:23:01.425Z,5
2016-12-09T08:24:01.459Z,5
2016-12-09T08:25:01.178Z,5
2016-12-09T08:26:02.123Z,5
2016-12-09T08:27:01.536Z,5
2016-12-09T08:28:02.469Z,5
2016-12-09T08:29:01.288Z,5
2016-12-09T08:30:02.529Z,5
2016-12-09T08:31:01.955Z,5
2016-12-09T08:32:01.376Z,5
2016-12-09T08:33:02.000Z,5
2016-12-09T08:34:02.329Z,5
2016-12-09T08:35:02.670Z,5
2016-12-09T08:36:02.390Z,5
2016-12-09T08:37:02.111Z,5
2016-12-09T08:38:02.164Z,5
2016-12-09T08:39:02.157Z,10
2016-12-09T08:40:01.893Z,10
2016-12-09T08:41:01.914Z,10
2016-12-09T08:42:02.555Z,10
2016-12-09T08:43:02.268Z,10
2016-12-09T08:44:01.685Z,10
2016-12-09T08:45:02.633Z,10
2016-12-09T08:46:02.058Z,10
2016-12-09T08:47:01.795Z,10
2016-12-09T08:48:02.112Z,10
2016-12-09T08:49:02.445Z,10
2016-12-09T08:50:02.771Z,10
2016-12-09T08:51:02.490Z,10
2016-12-09T08:52:01.935Z,10
2016-12-09T08:53:02.235Z,10
2016-12-09T08:54:02.568Z,10
2016-12-09T08:55:02.305Z,10
2016-12-09T08:56:02.926Z,10
2016-12-09T08:57:02.943Z,10
2016-12-09T08:58:02.368Z,10
2016-12-09T08:59:02.704Z,10
2016-12-09T09:00:02.749Z,10
2016-12-09T09:01:03.061Z,10
2016-12-09T09:02:02.179Z,10
2016-12-09T09:03:02.836Z,10
2016-12-09T09:04:02.549Z,10
2016-12-09T09:05:02.884Z,10
2016-12-09T09:06:02.581Z,10
2016-12-09T09:07:02.307Z,10
2016-12-09T09:08:02.636Z,10
2016-12-09T09:09:02.672Z,10
2016-12-09T09:10:03.009Z,10
2016-12-09T09:11:02.730Z,10
2016-12-09T09:12:03.362Z,10
2016-12-09T09:13:03.075Z,10
2016-12-09T09:14:03.099Z,10
2016-12-09T09:15:03.155Z,10
2016-12-09T09:16:02.861Z,10
2016-12-09T09:17:03.486Z,10
2016-12-09T09:18:03.219Z,10
2016-12-09T09:19:03.256Z,10
2016-12-09T09:20:03.569Z,10
2016-12-09T09:21:02.974Z,10
2016-12-09T09:22:03.014Z,10
2016-12-09T09:23:03.039Z,10
2016-12-09T09:24:03.386Z,10
2016-12-09T09:25:03.108Z,10
2016-12-09T09:26:03.748Z,10
2016-12-09T09:27:03.158Z,10
2016-12-09T09:28:03.166Z,15
2016-12-09T09:29:03.504Z,15
2016-12-09T09:30:04.160Z,15
2016-12-09T09:31:03.557Z,15
2016-12-09T09:32:03.290Z,15
2016-12-09T09:33:04.219Z,15
2016-12-09T09:34:03.053Z,15
2016-12-09T09:35:03.688Z,10
2016-12-09T09:36:03.694Z,10
2016-12-09T09:37:03.725Z,10
2016-12-09T09:38:03.770Z,10
2016-12-09T09:39:03.475Z,10
2016-12-09T09:40:04.108Z,10
2016-12-09T09:41:04.145Z,10
2016-12-09T09:42:03.866Z,10
2016-12-09T09:43:03.898Z,10
2016-12-09T09:44:03.922Z,10
2016-12-09T09:45:04.559Z,10
2016-12-09T09:46:04.260Z,10
2016-12-09T09:47:04.304Z,10
2016-12-09T09:48:04.023Z,10
2016-12-09T09:49:04.058Z,10
2016-12-09T09:50:04.367Z,10
2016-12-09T09:51:03.800Z,10
2016-12-09T09:52:03.825Z,10
2016-12-09T09:53:03.850Z,10
2016-12-09T09:54:04.190Z,5
2016-12-09T09:55:04.815Z,10
2016-12-09T09:56:04.256Z,10
2016-12-09T09:57:04.265Z,10
2016-12-09T09:58:04.593Z,10
2016-12-09T09:59:04.014Z,10
2016-12-09T10:00:04.046Z,10
2016-12-09T10:01:04.060Z,10
2016-12-09T10:02:04.389Z,10
2016-12-09T10:03:04.433Z,10
2016-12-09T10:04:04.142Z,10
2016-12-09T10:05:04.779Z,10
2016-12-09T10:06:05.108Z,10
2016-12-09T10:07:04.225Z,10
2016-12-09T10:08:04.249Z,10
2016-12-09T10:09:04.578Z,10
2016-12-09T10:10:04.927Z,10
2016-12-09T10:11:04.336Z,15
2016-12-09T10:12:05.260Z,15
2016-12-09T10:13:04.389Z,15
2016-12-09T10:14:04.730Z,15
2016-12-09T10:15:04.447Z,15
2016-12-09T10:16:04.783Z,15
2016-12-09T10:17:04.508Z,15
2016-12-09T10:18:05.134Z,15
2016-12-09T10:19:04.541Z,15
2016-12-09T10:20:04.278Z,15
2016-12-09T10:21:04.615Z,15
2016-12-09T10:22:04.324Z,15
2016-12-09T10:23:05.572Z,15
2016-12-09T10:24:04.718Z,10
2016-12-09T10:25:04.719Z,15
2016-12-09T10:26:04.735Z,15
2016-12-09T10:27:04.776Z,10
2016-12-09T10:28:05.106Z,15
2016-12-09T10:29:05.129Z,15
2016-12-09T10:30:05.446Z,15
2016-12-09T10:31:05.783Z,15
2016-12-09T10:32:05.204Z,15
2016-12-09T10:33:05.859Z,15
2016-12-09T10:34:05.241Z,10
2016-12-09T10:35:04.981Z,10
2016-12-09T10:36:05.614Z,10
2016-12-09T10:37:05.043Z,10
2016-12-09T10:38:05.352Z,15
2016-12-09T10:39:06.005Z,15
2016-12-09T10:40:04.803Z,15
2016-12-09T10:41:05.442Z,20
2016-12-09T10:42:05.163Z,20
2016-12-09T10:43:05.200Z,15
2016-12-09T10:44:05.516Z,15
2016-12-09T10:45:05.847Z,15
2016-12-09T10:46:05.582Z,15
2016-12-09T10:47:05.299Z,15
2016-12-09T10:48:05.631Z,15
2016-12-09T10:49:05.348Z,15
2016-12-09T10:50:05.701Z,15
2016-12-09T10:51:05.697Z,15
2016-12-09T10:52:05.446Z,15
2016-12-09T10:53:06.087Z,15
2016-12-09T10:54:06.102Z,15
2016-12-09T10:55:05.808Z,15
2016-12-09T10:56:05.530Z,15
2016-12-09T10:57:05.274Z,15
2016-12-09T10:58:05.602Z,15
2016-12-09T10:59:06.275Z,15
2016-12-09T11:00:05.960Z,15
2016-12-09T11:01:05.971Z,15
2016-12-09T11:02:05.709Z,15
2016-12-09T11:03:06.342Z,20
2016-12-09T11:04:06.051Z,25
2016-12-09T11:05:06.400Z,30
2016-12-09T11:06:06.112Z,30
2016-12-09T11:07:06.141Z,30
2016-12-09T11:08:06.482Z,35
2016-12-09T11:09:06.190Z,30
2016-12-09T11:10:05.915Z,35
2016-12-09T11:11:05.935Z,40
2016-12-09T11:12:05.965Z,40
2016-12-09T11:13:06.901Z,40
2016-12-09T11:14:06.334Z,40
2016-12-09T11:15:06.350Z,40
2016-12-09T11:16:06.663Z,40
2016-12-09T11:17:06.708Z,35
2016-12-09T11:18:06.733Z,40
2016-12-09T11:19:06.157Z,40
2016-12-09T11:20:06.498Z,40
2016-12-09T11:21:06.526Z,40
2016-12-09T11:22:06.243Z,35
2016-12-09T11:23:06.855Z,40
2016-12-09T11:24:06.297Z,40
2016-12-09T11:25:06.309Z,40
2016-12-09T11:26:06.974Z,40
2016-12-09T11:27:06.669Z,35
2016-12-09T11:28:07.014Z,40
2016-12-09T11:29:06.115Z,40
2016-12-09T11:30:06.756Z,40
2016-12-09T11:31:06.480Z,40
2016-12-09T11:32:06.509Z,40
2016-12-09T11:33:07.142Z,40
2016-12-09T11:34:06.559Z,40
2016-12-09T11:35:07.206Z,40
2016-12-09T11:36:06.604Z,40
2016-12-09T11:37:06.628Z,40
2016-12-09T11:38:06.961Z,40
2016-12-09T11:39:07.294Z,40
2016-12-09T11:40:07.034Z,40
2016-12-09T11:41:07.356Z,40
2016-12-09T11:42:07.388Z,40
2016-12-09T11:43:07.092Z,35
2016-12-09T11:44:07.125Z,30
2016-12-09T11:45:06.858Z,30
2016-12-09T11:46:07.779Z,30
2016-12-09T11:47:07.215Z,25
2016-12-09T11:48:07.569Z,25
2016-12-09T11:49:07.289Z,25
2016-12-09T11:50:07.594Z,25
2016-12-09T11:51:07.006Z,25
2016-12-09T11:52:06.738Z,25
2016-12-09T11:53:07.064Z,25
2016-12-09T11:54:07.401Z,25
2016-12-09T11:55:08.045Z,25
2016-12-09T11:56:07.467Z,25
2016-12-09T11:57:07.798Z,25
2016-12-09T11:58:06.891Z,25
2016-12-09T11:59:06.924Z,20
2016-12-09T12:00:08.181Z,20
2016-12-09T12:01:07.614Z,20
2016-12-09T12:02:07.318Z,25
2016-12-09T12:03:07.963Z,25
2016-12-09T12:04:08.012Z,25
2016-12-09T12:05:08.013Z,25
2016-12-09T12:06:07.429Z,25
2016-12-09T12:07:07.762Z,25
2016-12-09T12:08:08.087Z,25
2016-12-09T12:09:07.516Z,25
2016-12-09T12:10:07.548Z,30
2016-12-09T12:11:07.557Z,30
2016-12-09T12:12:08.189Z,30
2016-12-09T12:13:08.207Z,25
2016-12-09T12:14:07.955Z,25
2016-12-09T12:15:07.976Z,25
2016-12-09T12:16:08.001Z,20
2016-12-09T12:17:08.338Z,20
2016-12-09T12:18:08.358Z,20
2016-12-09T12:19:08.063Z,20
2016-12-09T12:20:07.807Z,20
2016-12-09T12:21:08.436Z,15
2016-12-09T12:22:08.153Z,15
2016-12-09T12:23:08.193Z,15
2016-12-09T12:24:08.822Z,15
2016-12-09T12:25:08.544Z,15
2016-12-09T12:26:08.559Z,15
2016-12-09T12:27:08.296Z,15
2016-12-09T12:28:08.324Z,15
2016-12-09T12:29:08.369Z,15
2016-12-09T12:30:08.390Z,15
2016-12-09T12:31:07.799Z,15
2016-12-09T12:32:07.823Z,20
2016-12-09T12:33:08.447Z,20
2016-12-09T12:34:08.172Z,20
2016-12-09T12:35:07.904Z,15
2016-12-09T12:36:08.245Z,15
2016-12-09T12:37:08.869Z,15
2016-12-09T12:38:08.590Z,15
2016-12-09T12:39:08.918Z,15
2016-12-09T12:40:08.327Z,15
2016-12-09T12:41:08.672Z,15
2016-12-09T12:42:09.004Z,20
2016-12-09T12:43:08.736Z,20
2016-12-09T12:44:08.469Z,20
2016-12-09T12:45:08.810Z,20
2016-12-09T12:46:08.503Z,15
2016-12-09T12:47:08.845Z,15
2016-12-09T12:48:08.560Z,15
2016-12-09T12:49:08.891Z,15
2016-12-09T12:50:08.605Z,15
2016-12-09T12:51:08.974Z,15
2016-12-09T12:52:08.975Z,15
2016-12-09T12:53:08.995Z,15
2016-12-09T12:54:09.019Z,10
2016-12-09T12:55:08.748Z,10
2016-12-09T12:56:09.377Z,10
2016-12-09T12:57:09.402Z,10
2016-12-09T12:58:08.828Z,10
2016-12-09T12:59:09.467Z,15
2016-12-09T13:00:09.492Z,15
2016-12-09T13:01:09.512Z,15
2016-12-09T13:02:08.925Z,15
2016-12-09T13:03:09.257Z,15
2016-12-09T13:04:09.595Z,15
2016-12-09T13:05:09.337Z,15
2016-12-09T13:06:09.960Z,15
2016-12-09T13:07:09.373Z,15
2016-12-09T13:08:08.785Z,15
2016-12-09T13:09:09.729Z,15
2016-12-09T13:10:08.846Z,15
2016-12-09T13:11:09.175Z,15
2016-12-09T13:12:09.513Z,15
2016-12-09T13:13:10.149Z,15
2016-12-09T13:14:09.245Z,15
2016-12-09T13:15:09.277Z,15
2016-12-09T13:16:09.906Z,15
2016-12-09T13:17:09.643Z,10
2016-12-09T13:18:09.060Z,10
2016-12-09T13:19:10.313Z,10
2016-12-09T13:20:10.313Z,15
2016-12-09T13:21:09.154Z,15
2016-12-09T13:22:09.470Z,15
2016-12-09T13:23:09.803Z,10
2016-12-09T13:24:09.831Z,10
2016-12-09T13:25:09.560Z,10
2016-12-09T13:26:09.897Z,10
2016-12-09T13:27:09.606Z,10
2016-12-09T13:28:09.938Z,10
2016-12-09T13:29:10.259Z,10
2016-12-09T13:30:09.688Z,5
2016-12-09T13:31:09.417Z,5
2016-12-09T13:32:10.367Z,5
2016-12-09T13:33:10.374Z,5
2016-12-09T13:34:10.404Z,5
2016-12-09T13:35:09.831Z,5
2016-12-09T13:36:10.448Z,5
2016-12-09T13:37:09.882Z,5
2016-12-09T13:38:10.213Z,5
2016-12-09T13:39:10.242Z,5
2016-12-09T13:40:09.967Z,5
2016-12-09T13:41:10.895Z,5
2016-12-09T13:42:10.000Z,5
2016-12-09T13:43:10.329Z,5
2016-12-09T13:44:10.690Z,5
2016-12-09T13:45:10.094Z,5
2016-12-09T13:46:10.419Z,5
2016-12-09T13:47:10.755Z,5
2016-12-09T13:48:10.803Z,5
2016-12-09T13:49:10.812Z,5
2016-12-09T13:50:10.530Z,5
2016-12-09T13:51:10.242Z,10
2016-12-09T13:52:10.595Z,10
2016-12-09T13:53:10.912Z,10
2016-12-09T13:54:10.944Z,10
2016-12-09T13:55:10.986Z,10
2016-12-09T13:56:10.385Z,10
2016-12-09T13:57:11.015Z,10
2016-12-09T13:58:10.739Z,10
2016-12-09T13:59:10.764Z,10
2016-12-09T14:00:10.797Z,10
2016-12-09T14:01:10.833Z,10
2016-12-09T14:02:10.859Z,10
2016-12-09T14:03:10.267Z,10
2016-12-09T14:04:10.303Z,10
2016-12-09T14:05:10.955Z,10
2016-12-09T14:06:11.266Z,5
2016-12-09T14:07:11.013Z,5
2016-12-09T14:08:11.006Z,5
2016-12-09T14:09:11.034Z,5
2016-12-09T14:10:10.764Z,5
2016-12-09T14:11:11.121Z,5
2016-12-09T14:12:10.809Z,5
2016-12-09T14:13:10.542Z,5
2016-12-09T14:14:10.903Z,5
2016-12-09T14:15:11.499Z,5
2016-12-09T14:16:11.517Z,5
2016-12-09T14:17:11.560Z,5
2016-12-09T14:18:11.266Z,5
2016-12-09T14:19:11.302Z,5
2016-12-09T14:20:11.040Z,5
2016-12-09T14:21:11.363Z,5
2016-12-09T14:22:11.080Z,10
2016-12-09T14:23:11.102Z,5
2016-12-09T14:24:10.842Z,5
2016-12-09T14:25:11.174Z,5
2016-12-09T14:26:12.088Z,5
2016-12-09T14:27:12.144Z,5
2016-12-09T14:28:11.557Z,5
2016-12-09T14:29:11.260Z,5
2016-12-09T14:30:11.907Z,5
2016-12-09T14:31:11.630Z,5
2016-12-09T14:32:11.673Z,5
2016-12-09T14:33:11.672Z,5
2016-12-09T14:34:12.028Z,5
2016-12-09T14:35:11.750Z,5
2016-12-09T14:36:11.462Z,5
2016-12-09T14:37:11.787Z,5
2016-12-09T14:38:11.805Z,5
2016-12-09T14:39:11.544Z,5